createdAt,value
2022-09-03T00:00:55.937Z,1002.56
2022-09-03T00:01:56.127Z,1002.56
2022-09-03T00:02:56.432Z,1002.55
2022-09-03T00:03:56.458Z,1002.52
2022-09-03T00:04:56.607Z,1002.57
2022-09-03T00:05:56.779Z,1002.54
2022-09-03T00:06:56.951Z,1002.51
2022-09-03T00:07:57.097Z,1002.46
2022-09-03T00:08:57.260Z,1002.53
2022-09-03T00:09:57.424Z,1002.51
2022-09-03T00:10:57.585Z,1002.53
2022-09-03T00:11:57.813Z,1002.53
2022-09-03T00:12:57.965Z,1002.55
2022-09-03T00:13:58.187Z,1002.49
2022-09-03T00:14:58.338Z,1002.46
2022-09-03T00:15:59.515Z,1002.47
2022-09-03T00:16:58.616Z,1002.46
2022-09-03T00:17:58.736Z,1002.52
2022-09-03T00:18:58.993Z,1002.49
2022-09-03T00:19:59.107Z,1002.57
2022-09-03T00:20:59.250Z,1002.48
2022-09-03T00:21:59.400Z,1002.47
2022-09-03T00:22:59.528Z,1002.48
2022-09-03T00:23:59.773Z,1002.49
2022-09-03T00:24:59.909Z,1002.46
2022-09-03T00:26:00.091Z,1002.47
2022-09-03T00:27:00.288Z,1002.51
2022-09-03T00:28:00.452Z,1002.48
2022-09-03T00:29:00.577Z,1002.52
2022-09-03T00:30:01.273Z,1002.49
2022-09-03T00:31:00.929Z,1002.42
2022-09-03T00:32:01.108Z,1002.48
2022-09-03T00:33:01.765Z,1002.39
2022-09-03T00:34:02.270Z,1002.45
2022-09-03T00:35:01.624Z,1002.42
2022-09-03T00:36:01.761Z,1002.44
2022-09-03T00:37:02.278Z,1002.42
2022-09-03T00:38:02.767Z,1002.41
2022-09-03T00:39:02.263Z,1002.45
2022-09-03T00:40:03.437Z,1002.43
2022-09-03T00:41:03.270Z,1002.43
2022-09-03T00:42:02.794Z,1002.48
2022-09-03T00:43:02.926Z,1002.59
2022-09-03T00:44:03.088Z,1002.48
2022-09-03T00:45:03.772Z,1002.45
2022-09-03T00:46:03.466Z,1002.48
2022-09-03T00:47:03.632Z,1002.44
2022-09-03T00:48:04.769Z,1002.45
2022-09-03T00:49:04.031Z,1002.43
2022-09-03T00:50:04.192Z,1002.50
2022-09-03T00:51:04.343Z,1002.44
2022-09-03T00:52:05.488Z,1002.44
2022-09-03T00:53:04.753Z,1002.39
2022-09-03T00:54:05.305Z,1002.37
2022-09-03T00:55:05.059Z,1002.41
2022-09-03T00:56:05.222Z,1002.38
2022-09-03T00:57:05.368Z,1002.36
2022-09-03T00:58:05.518Z,1002.37
2022-09-03T00:59:05.652Z,1002.37
2022-09-03T01:00:05.792Z,1002.40
2022-09-03T01:01:05.941Z,1002.39
2022-09-03T01:02:06.315Z,1002.37
2022-09-03T01:03:06.304Z,1002.44
2022-09-03T01:04:06.446Z,1002.45
2022-09-03T01:05:06.602Z,1002.39
2022-09-03T01:06:06.767Z,1002.42
2022-09-03T01:07:06.949Z,1002.33
2022-09-03T01:08:07.107Z,1002.37
2022-09-03T01:09:07.254Z,1002.40
2022-09-03T01:10:07.433Z,1002.40
2022-09-03T01:11:07.595Z,1002.39
2022-09-03T01:12:08.284Z,1002.43
2022-09-03T01:13:07.934Z,1002.50
2022-09-03T01:14:08.076Z,1002.48
2022-09-03T01:15:08.250Z,1002.42
2022-09-03T01:16:08.471Z,1002.49
2022-09-03T01:17:08.529Z,1002.50
2022-09-03T01:18:09.281Z,1002.45
2022-09-03T01:19:08.899Z,1002.48
2022-09-03T01:20:09.058Z,1002.44
2022-09-03T01:21:09.170Z,1002.49
2022-09-03T01:22:10.282Z,1002.44
2022-09-03T01:23:09.533Z,1002.48
2022-09-03T01:24:09.665Z,1002.46
2022-09-03T01:25:09.833Z,1002.48
2022-09-03T01:26:09.984Z,1002.55
2022-09-03T01:27:10.159Z,1002.48
2022-09-03T01:28:10.341Z,1002.51
2022-09-03T01:29:10.547Z,1002.43
2022-09-03T01:30:10.715Z,1002.44
2022-09-03T01:31:10.918Z,1002.40
2022-09-03T01:32:11.026Z,1002.42
2022-09-03T01:33:11.788Z,1002.43
2022-09-03T01:34:11.500Z,1002.47
2022-09-03T01:35:11.673Z,1002.47
2022-09-03T01:36:11.870Z,1002.44
2022-09-03T01:37:12.042Z,1002.50
2022-09-03T01:38:12.240Z,1002.45
2022-09-03T01:39:12.799Z,1002.45
2022-09-03T01:40:12.579Z,1002.46
2022-09-03T01:41:12.796Z,1002.43
2022-09-03T01:42:12.956Z,1002.47
2022-09-03T01:43:13.791Z,1002.48
2022-09-03T01:44:13.278Z,1002.47
2022-09-03T01:45:13.414Z,1002.52
2022-09-03T01:46:13.628Z,1002.48
2022-09-03T01:47:13.791Z,1002.47
2022-09-03T01:48:14.787Z,1002.42
2022-09-03T01:49:14.176Z,1002.41
2022-09-03T01:50:14.802Z,1002.42
2022-09-03T01:51:14.454Z,1002.42
2022-09-03T01:52:15.322Z,1002.41
2022-09-03T01:53:14.826Z,1002.40
2022-09-03T01:54:18.008Z,1002.40
2022-09-03T01:55:16.166Z,1002.37
2022-09-03T01:56:15.289Z,1002.40
2022-09-03T01:57:31.257Z,1002.35
2022-09-03T01:58:16.594Z,1002.41
2022-09-03T01:59:15.764Z,1002.42
2022-09-03T02:00:16.793Z,1002.34
2022-09-03T02:01:18.174Z,1002.36
2022-09-03T02:02:16.215Z,1002.42
2022-09-03T02:03:16.337Z,1002.41
2022-09-03T02:04:17.296Z,1002.42
2022-09-03T02:05:16.685Z,1002.37
2022-09-03T02:06:16.852Z,1002.46
2022-09-03T02:07:17.796Z,1002.42
2022-09-03T02:08:17.795Z,1002.37
2022-09-03T02:09:17.301Z,1002.36
2022-09-03T02:10:18.299Z,1002.37
2022-09-03T02:11:17.843Z,1002.40
2022-09-03T02:12:17.866Z,1002.34
2022-09-03T02:13:18.006Z,1002.37
2022-09-03T02:14:18.798Z,1002.42
2022-09-03T02:15:18.830Z,1002.43
2022-09-03T02:16:18.541Z,1002.42
2022-09-03T02:17:18.596Z,1002.45
2022-09-03T02:18:18.763Z,1002.45
2022-09-03T02:19:18.922Z,1002.39
2022-09-03T02:20:20.073Z,1002.39
2022-09-03T02:21:19.317Z,1002.45
2022-09-03T02:22:19.474Z,1002.46
2022-09-03T02:23:19.626Z,1002.43
2022-09-03T02:24:20.849Z,1002.49
2022-09-03T02:25:20.802Z,1002.38
2022-09-03T02:26:20.300Z,1002.44
2022-09-03T02:27:20.432Z,1002.46
2022-09-03T02:28:20.576Z,1002.41
2022-09-03T02:29:20.723Z,1002.43
2022-09-03T02:30:20.858Z,1002.44
2022-09-03T02:31:21.103Z,1002.43
2022-09-03T02:32:21.123Z,1002.44
2022-09-03T02:33:21.252Z,1002.44
2022-09-03T02:34:21.396Z,1002.44
2022-09-03T02:35:21.816Z,1002.49
2022-09-03T02:36:21.698Z,1002.46
2022-09-03T02:37:22.810Z,1002.42
2022-09-03T02:38:22.075Z,1002.41
2022-09-03T02:39:22.233Z,1002.42
2022-09-03T02:40:22.447Z,1002.47
2022-09-03T02:41:22.654Z,1002.42
2022-09-03T02:42:22.884Z,1002.45
2022-09-03T02:43:25.896Z,1002.46
2022-09-03T02:44:23.292Z,1002.46
2022-09-03T02:45:24.309Z,1002.42
2022-09-03T02:46:23.722Z,1002.44
2022-09-03T02:47:23.784Z,1002.45
2022-09-03T02:48:24.058Z,1002.45
2022-09-03T02:49:24.811Z,1002.44
2022-09-03T02:50:24.315Z,1002.45
2022-09-03T02:51:24.460Z,1002.42
2022-09-03T02:52:24.603Z,1002.44
2022-09-03T02:53:24.725Z,1002.49
2022-09-03T02:54:24.863Z,1002.49
2022-09-03T02:55:24.994Z,1002.47
2022-09-03T02:56:25.140Z,1002.44
2022-09-03T02:57:27.750Z,1002.48
2022-09-03T02:58:25.371Z,1002.56
2022-09-03T02:59:25.501Z,1002.55
2022-09-03T03:00:26.312Z,1002.51
2022-09-03T03:01:25.849Z,1002.56
2022-09-03T03:02:25.997Z,1002.54
2022-09-03T03:03:26.816Z,1002.57
2022-09-03T03:04:26.298Z,1002.54
2022-09-03T03:05:26.432Z,1002.54
2022-09-03T03:06:26.827Z,1002.52
2022-09-03T03:07:26.712Z,1002.51
2022-09-03T03:08:26.884Z,1002.56
2022-09-03T03:09:27.053Z,1002.52
2022-09-03T03:10:27.211Z,1002.57
2022-09-03T03:11:27.410Z,1002.59
2022-09-03T03:12:27.594Z,1002.58
2022-09-03T03:13:27.782Z,1002.57
2022-09-03T03:14:27.944Z,1002.61
2022-09-03T03:15:28.103Z,1002.59
2022-09-03T03:16:28.289Z,1002.55
2022-09-03T03:17:28.483Z,1002.51
2022-09-03T03:18:28.654Z,1002.59
2022-09-03T03:19:29.317Z,1002.61
2022-09-03T03:20:28.958Z,1002.57
2022-09-03T03:21:29.089Z,1002.60
2022-09-03T03:22:29.249Z,1002.61
2022-09-03T03:23:29.400Z,1002.59
2022-09-03T03:24:29.549Z,1002.58
2022-09-03T03:25:29.692Z,1002.56
2022-09-03T03:26:29.838Z,1002.55
2022-09-03T03:27:30.336Z,1002.61
2022-09-03T03:28:30.823Z,1002.57
2022-09-03T03:29:30.319Z,1002.58
2022-09-03T03:30:30.489Z,1002.58
2022-09-03T03:31:30.648Z,1002.58
2022-09-03T03:32:30.804Z,1002.54
2022-09-03T03:33:30.952Z,1002.58
2022-09-03T03:34:31.339Z,1002.53
2022-09-03T03:35:31.268Z,1002.58
2022-09-03T03:36:31.428Z,1002.57
2022-09-03T03:37:31.583Z,1002.58
2022-09-03T03:38:31.837Z,1002.55
2022-09-03T03:39:31.911Z,1002.56
2022-09-03T03:40:31.995Z,1002.52
2022-09-03T03:41:32.827Z,1002.60
2022-09-03T03:42:32.355Z,1002.53
2022-09-03T03:43:32.524Z,1002.54
2022-09-03T03:44:32.694Z,1002.54
2022-09-03T03:45:32.884Z,1002.59
2022-09-03T03:46:33.076Z,1002.54
2022-09-03T03:47:33.825Z,1002.58
2022-09-03T03:48:33.460Z,1002.46
2022-09-03T03:49:33.619Z,1002.46
2022-09-03T03:50:33.769Z,1002.54
2022-09-03T03:51:33.987Z,1002.59
2022-09-03T03:52:34.143Z,1002.52
2022-09-03T03:53:34.292Z,1002.53
2022-09-03T03:54:34.437Z,1002.52
2022-09-03T03:55:35.438Z,1002.51
2022-09-03T03:56:34.855Z,1002.58
2022-09-03T03:57:35.004Z,1002.55
2022-09-03T03:58:35.156Z,1002.47
2022-09-03T03:59:35.833Z,1002.43
2022-09-03T04:00:35.439Z,1002.43
2022-09-03T04:01:36.386Z,1002.45
2022-09-03T04:02:39.028Z,1002.48
2022-09-03T04:03:37.047Z,1002.39
2022-09-03T04:04:36.151Z,1002.39
2022-09-03T04:05:39.710Z,1002.40
2022-09-03T04:06:38.338Z,1002.33
2022-09-03T04:07:36.676Z,1002.34
2022-09-03T04:08:36.818Z,1002.35
2022-09-03T04:09:37.016Z,1002.34
2022-09-03T04:10:37.160Z,1002.30
2022-09-03T04:11:37.301Z,1002.36
2022-09-03T04:12:37.439Z,1002.31
2022-09-03T04:13:38.336Z,1002.32
2022-09-03T04:14:37.847Z,1002.26
2022-09-03T04:15:37.863Z,1002.30
2022-09-03T04:16:38.022Z,1002.23
2022-09-03T04:17:38.175Z,1002.24
2022-09-03T04:18:38.411Z,1002.26
2022-09-03T04:19:38.848Z,1002.22
2022-09-03T04:20:38.727Z,1002.28
2022-09-03T04:21:38.886Z,1002.27
2022-09-03T04:22:39.028Z,1002.17
2022-09-03T04:23:39.841Z,1002.28
2022-09-03T04:24:39.360Z,1002.22
2022-09-03T04:25:39.500Z,1002.22
2022-09-03T04:26:39.661Z,1002.25
2022-09-03T04:27:39.853Z,1002.29
2022-09-03T04:28:39.981Z,1002.21
2022-09-03T04:29:40.114Z,1002.25
2022-09-03T04:30:40.297Z,1002.25
2022-09-03T04:31:40.381Z,1002.23
2022-09-03T04:32:40.538Z,1002.21
2022-09-03T04:33:40.685Z,1002.22
2022-09-03T04:34:41.343Z,1002.16
2022-09-03T04:35:41.358Z,1002.20
2022-09-03T04:36:41.116Z,1002.18
2022-09-03T04:37:41.242Z,1002.18
2022-09-03T04:38:42.345Z,1002.25
2022-09-03T04:39:41.628Z,1002.18
2022-09-03T04:40:41.852Z,1002.17
2022-09-03T04:41:42.006Z,1002.13
2022-09-03T04:42:42.163Z,1002.16
2022-09-03T04:43:42.303Z,1002.21
2022-09-03T04:44:42.450Z,1002.16
2022-09-03T04:45:42.617Z,1002.06
2022-09-03T04:46:42.846Z,1002.11
2022-09-03T04:47:42.983Z,1002.14
2022-09-03T04:48:43.854Z,1002.15
2022-09-03T04:49:43.360Z,1002.19
2022-09-03T04:50:43.492Z,1002.16
2022-09-03T04:51:43.660Z,1002.13
2022-09-03T04:52:43.834Z,1002.18
2022-09-03T04:53:44.018Z,1002.12
2022-09-03T04:54:44.183Z,1002.12
2022-09-03T04:55:44.848Z,1002.17
2022-09-03T04:56:45.349Z,1002.18
2022-09-03T04:57:44.609Z,1002.18
2022-09-03T04:58:45.358Z,1002.19
2022-09-03T04:59:44.879Z,1002.14
2022-09-03T05:00:45.066Z,1002.12
2022-09-03T05:01:45.911Z,1002.15
2022-09-03T05:02:45.409Z,1002.13
2022-09-03T05:03:46.351Z,1002.13
2022-09-03T05:04:45.775Z,1002.16
2022-09-03T05:05:49.610Z,1002.21
2022-09-03T05:06:48.097Z,1002.19
2022-09-03T05:07:46.362Z,1002.20
2022-09-03T05:08:47.352Z,1002.19
2022-09-03T05:09:47.353Z,1002.14
2022-09-03T05:10:46.856Z,1002.22
2022-09-03T05:11:47.851Z,1002.18
2022-09-03T05:12:47.236Z,1002.12
2022-09-03T05:13:47.365Z,1002.12
2022-09-03T05:14:47.521Z,1002.17
2022-09-03T05:15:48.353Z,1002.09
2022-09-03T05:16:53.237Z,1002.05
2022-09-03T05:17:49.366Z,1002.06
2022-09-03T05:18:48.107Z,1002.09
2022-09-03T05:19:48.253Z,1002.04
2022-09-03T05:20:48.380Z,1002.06
2022-09-03T05:21:48.535Z,1002.01
2022-09-03T05:22:48.678Z,1001.98
2022-09-03T05:23:48.813Z,1002.04
2022-09-03T05:24:48.977Z,1001.97
2022-09-03T05:25:49.131Z,1002.02
2022-09-03T05:26:49.271Z,1002.03
2022-09-03T05:27:49.403Z,1001.98
2022-09-03T05:28:49.550Z,1002.02
2022-09-03T05:29:49.734Z,1002.03
2022-09-03T05:30:49.886Z,1002.01
2022-09-03T05:31:50.078Z,1001.95
2022-09-03T05:32:50.162Z,1001.96
2022-09-03T05:33:50.860Z,1001.98
2022-09-03T05:34:50.532Z,1001.97
2022-09-03T05:35:51.365Z,1001.97
2022-09-03T05:36:50.874Z,1001.99
2022-09-03T05:37:51.030Z,1001.93
2022-09-03T05:38:51.185Z,1002.01
2022-09-03T05:39:51.413Z,1001.91
2022-09-03T05:40:52.360Z,1001.91
2022-09-03T05:41:52.388Z,1001.86
2022-09-03T05:42:52.868Z,1001.91
2022-09-03T05:43:52.867Z,1001.89
2022-09-03T05:44:52.151Z,1001.88
2022-09-03T05:45:52.376Z,1001.88
2022-09-03T05:46:52.526Z,1001.86
2022-09-03T05:47:52.675Z,1001.83
2022-09-03T05:48:52.825Z,1001.84
2022-09-03T05:49:54.001Z,1001.79
2022-09-03T05:50:53.112Z,1001.71
2022-09-03T05:51:53.249Z,1001.72
2022-09-03T05:52:53.391Z,1001.72
2022-09-03T05:53:53.528Z,1001.70
2022-09-03T05:54:53.703Z,1001.78
2022-09-03T05:55:53.840Z,1001.64
2022-09-03T05:56:53.988Z,1001.68
2022-09-03T05:57:54.141Z,1001.62
2022-09-03T05:58:54.299Z,1001.65
2022-09-03T05:59:55.382Z,1001.65
2022-09-03T06:00:54.657Z,1001.55
2022-09-03T06:02:00.034Z,1001.56
2022-09-03T06:02:56.073Z,1001.62
2022-09-03T06:03:56.111Z,1001.46
2022-09-03T06:04:55.258Z,1001.41
2022-09-03T06:05:56.368Z,1001.48
2022-09-03T06:06:56.370Z,1001.53
2022-09-03T06:07:55.759Z,1001.43
2022-09-03T06:08:56.868Z,1001.38
2022-09-03T06:09:56.120Z,1001.40
2022-09-03T06:10:56.385Z,1001.38
2022-09-03T06:11:57.288Z,1001.33
2022-09-03T06:12:56.594Z,1001.32
2022-09-03T06:13:57.370Z,1001.27
2022-09-03T06:14:56.880Z,1001.23
2022-09-03T06:15:57.468Z,1001.17
2022-09-03T06:16:57.296Z,1001.15
2022-09-03T06:17:57.472Z,1001.12
2022-09-03T06:18:57.643Z,1001.15
2022-09-03T06:19:57.814Z,1001.07
2022-09-03T06:20:58.880Z,1001.03
2022-09-03T06:21:58.868Z,1001.04
2022-09-03T06:22:59.374Z,1001.03
2022-09-03T06:24:00.004Z,1000.91
2022-09-03T06:24:58.813Z,1000.89
2022-09-03T06:26:02.024Z,1000.92
2022-09-03T06:27:01.128Z,1000.93
2022-09-03T06:27:59.872Z,1000.86
2022-09-03T06:29:00.378Z,1000.90
2022-09-03T06:30:00.375Z,1000.84
2022-09-03T06:31:00.376Z,1000.83
2022-09-03T06:31:59.965Z,1000.71
2022-09-03T06:33:00.882Z,1000.66
2022-09-03T06:34:04.019Z,1000.52
2022-09-03T06:35:01.399Z,1000.17
2022-09-03T06:36:00.941Z,999.99
2022-09-03T06:37:00.677Z,999.63
2022-09-03T06:38:00.866Z,999.40
2022-09-03T06:39:01.024Z,999.26
2022-09-03T06:40:01.286Z,999.25
2022-09-03T06:41:01.347Z,998.45
2022-09-03T06:42:01.539Z,998.30
2022-09-03T06:43:01.696Z,998.24
2022-09-03T06:44:01.867Z,998.30
2022-09-03T06:45:02.061Z,998.45
2022-09-03T06:46:02.258Z,998.59
2022-09-03T06:47:03.382Z,998.54
2022-09-03T06:48:02.662Z,998.87
2022-09-03T06:49:02.890Z,998.89
2022-09-03T06:50:03.058Z,998.91
2022-09-03T06:51:03.239Z,998.53
2022-09-03T06:52:03.408Z,998.27
2022-09-03T06:53:03.567Z,998.24
2022-09-03T06:54:03.723Z,998.45
2022-09-03T06:55:03.860Z,998.78
2022-09-03T06:56:04.885Z,998.83
2022-09-03T06:57:04.247Z,998.97
2022-09-03T06:58:04.380Z,999.02
2022-09-03T06:59:04.519Z,998.85
2022-09-03T07:00:05.385Z,998.26
2022-09-03T07:01:05.447Z,997.75
2022-09-03T07:02:05.506Z,997.86
2022-09-03T07:03:05.225Z,998.07
2022-09-03T07:04:05.466Z,998.08
2022-09-03T07:05:06.400Z,997.96
2022-09-03T07:06:06.393Z,997.36
2022-09-03T07:07:05.916Z,997.23
2022-09-03T07:08:06.067Z,997.50
2022-09-03T07:09:06.903Z,997.74
2022-09-03T07:10:06.892Z,997.40
2022-09-03T07:11:06.508Z,996.36
2022-09-03T07:12:06.763Z,995.68
2022-09-03T07:13:06.904Z,995.04
2022-09-03T07:14:07.023Z,994.67
2022-09-03T07:15:07.172Z,994.58
2022-09-03T07:16:08.373Z,994.29
2022-09-03T07:17:07.487Z,994.44
2022-09-03T07:18:07.724Z,994.42
2022-09-03T07:19:08.397Z,994.65
2022-09-03T07:20:08.406Z,994.72
2022-09-03T07:21:08.259Z,994.84
2022-09-03T07:22:08.395Z,994.91
2022-09-03T07:23:08.533Z,994.98
2022-09-03T07:24:09.394Z,995.06
2022-09-03T07:25:08.911Z,994.90
2022-09-03T07:26:09.919Z,994.92
2022-09-03T07:27:13.053Z,995.19
2022-09-03T07:28:11.464Z,995.62
2022-09-03T07:29:09.654Z,995.87
2022-09-03T07:30:09.907Z,995.69
2022-09-03T07:31:10.896Z,996.00
2022-09-03T07:32:11.294Z,996.26
2022-09-03T07:33:10.910Z,996.33
2022-09-03T07:34:10.737Z,996.58
2022-09-03T07:35:11.404Z,996.92
2022-09-03T07:36:11.899Z,997.18
2022-09-03T07:37:11.217Z,997.46
2022-09-03T07:38:11.468Z,997.66
2022-09-03T07:39:12.429Z,997.80
2022-09-03T07:40:11.778Z,998.01
2022-09-03T07:41:12.405Z,998.34
2022-09-03T07:42:13.133Z,998.49
2022-09-03T07:43:12.361Z,998.51
2022-09-03T07:44:12.476Z,998.69
2022-09-03T07:45:12.605Z,998.93
2022-09-03T07:46:12.879Z,998.94
2022-09-03T07:47:13.042Z,999.06
2022-09-03T07:48:13.186Z,999.23
2022-09-03T07:49:13.314Z,999.23
2022-09-03T07:50:13.466Z,999.31
2022-09-03T07:51:13.655Z,999.33
2022-09-03T07:52:14.407Z,999.48
2022-09-03T07:53:13.977Z,999.47
2022-09-03T07:54:14.122Z,999.60
2022-09-03T07:55:14.278Z,999.61
2022-09-03T07:56:14.443Z,999.69
2022-09-03T07:57:14.591Z,999.80
2022-09-03T07:58:15.439Z,999.75
2022-09-03T07:59:15.908Z,999.79
2022-09-03T08:00:15.060Z,999.85
2022-09-03T08:01:15.469Z,999.92
2022-09-03T08:02:15.346Z,999.88
2022-09-03T08:03:15.475Z,999.91
2022-09-03T08:04:15.643Z,999.95
2022-09-03T08:05:15.824Z,999.85
2022-09-03T08:06:15.965Z,999.90
2022-09-03T08:07:16.917Z,999.83
2022-09-03T08:08:16.506Z,999.99
2022-09-03T08:09:16.506Z,1000.03
2022-09-03T08:10:16.655Z,1000.01
2022-09-03T08:11:16.809Z,999.96
2022-09-03T08:12:17.917Z,999.98
2022-09-03T08:13:17.424Z,999.93
2022-09-03T08:14:17.314Z,999.99
2022-09-03T08:15:17.498Z,1000.09
2022-09-03T08:16:17.697Z,1000.06
2022-09-03T08:17:17.812Z,999.60
2022-09-03T08:18:17.967Z,999.29
2022-09-03T08:19:18.680Z,998.68
2022-09-03T08:20:18.921Z,998.73
2022-09-03T08:21:18.563Z,998.81
2022-09-03T08:22:19.420Z,998.86
2022-09-03T08:23:19.920Z,998.94
2022-09-03T08:24:19.438Z,998.89
2022-09-03T08:25:19.218Z,998.90
2022-09-03T08:26:19.434Z,998.92
2022-09-03T08:27:19.565Z,998.89
2022-09-03T08:28:20.733Z,998.89
2022-09-03T08:29:19.867Z,998.79
2022-09-03T08:30:20.056Z,998.78
2022-09-03T08:31:20.233Z,998.70
2022-09-03T08:32:20.404Z,998.65
2022-09-03T08:33:20.572Z,998.51
2022-09-03T08:34:20.725Z,998.43
2022-09-03T08:35:20.878Z,998.41
2022-09-03T08:36:21.054Z,998.16
2022-09-03T08:37:21.198Z,998.00
2022-09-03T08:38:21.460Z,997.79
2022-09-03T08:39:21.514Z,997.59
2022-09-03T08:40:21.672Z,997.65
2022-09-03T08:41:21.846Z,997.63
2022-09-03T08:42:22.052Z,997.79
2022-09-03T08:43:22.257Z,997.70
2022-09-03T08:44:22.441Z,997.66
2022-09-03T08:45:22.613Z,997.71
2022-09-03T08:46:22.816Z,997.65
2022-09-03T08:47:23.014Z,997.59
2022-09-03T08:48:25.861Z,997.70
2022-09-03T08:49:24.396Z,997.68
2022-09-03T08:50:24.429Z,997.79
2022-09-03T08:51:23.810Z,997.94
2022-09-03T08:52:23.966Z,997.96
2022-09-03T08:53:24.109Z,997.97
2022-09-03T08:54:24.278Z,998.04
2022-09-03T08:55:24.456Z,998.00
2022-09-03T08:56:25.439Z,998.10
2022-09-03T08:57:24.815Z,998.30
2022-09-03T08:58:25.097Z,998.17
2022-09-03T08:59:30.053Z,998.23
2022-09-03T09:00:26.934Z,998.24
2022-09-03T09:01:25.542Z,998.28
2022-09-03T09:02:26.508Z,998.39
2022-09-03T09:03:25.840Z,998.36
2022-09-03T09:04:25.979Z,998.42
2022-09-03T09:05:26.127Z,998.39
2022-09-03T09:06:26.266Z,998.39
2022-09-03T09:07:26.407Z,998.43
2022-09-03T09:08:26.559Z,998.20
2022-09-03T09:09:26.729Z,998.28
2022-09-03T09:10:26.882Z,998.17
2022-09-03T09:11:27.941Z,998.15
2022-09-03T09:12:27.870Z,998.01
2022-09-03T09:13:27.557Z,997.91
2022-09-03T09:14:27.698Z,998.07
2022-09-03T09:15:27.813Z,997.94
2022-09-03T09:16:28.007Z,998.00
2022-09-03T09:17:28.164Z,998.00
2022-09-03T09:18:28.410Z,998.04
2022-09-03T09:19:28.951Z,998.05
2022-09-03T09:20:28.700Z,997.93
2022-09-03T09:21:28.941Z,998.08
2022-09-03T09:22:29.071Z,998.05
2022-09-03T09:23:29.204Z,998.08
2022-09-03T09:24:29.458Z,998.11
2022-09-03T09:25:29.580Z,998.13
2022-09-03T09:26:29.706Z,998.11
2022-09-03T09:27:29.828Z,998.10
2022-09-03T09:28:29.950Z,998.12
2022-09-03T09:29:30.113Z,998.12
2022-09-03T09:30:30.225Z,998.11
2022-09-03T09:31:30.478Z,998.10
2022-09-03T09:32:30.592Z,998.12
2022-09-03T09:33:31.444Z,998.09
2022-09-03T09:34:30.914Z,998.09
2022-09-03T09:35:31.061Z,998.11
2022-09-03T09:36:31.189Z,998.05
2022-09-03T09:37:31.951Z,998.09
2022-09-03T09:38:31.948Z,998.09
2022-09-03T09:39:32.106Z,997.99
2022-09-03T09:40:31.724Z,997.86
2022-09-03T09:41:31.849Z,997.74
2022-09-03T09:42:31.993Z,997.71
2022-09-03T09:43:32.118Z,997.59
2022-09-03T09:44:32.948Z,997.48
2022-09-03T09:45:32.462Z,997.15
2022-09-03T09:46:32.668Z,997.00
2022-09-03T09:47:32.730Z,996.86
2022-09-03T09:48:32.856Z,996.69
2022-09-03T09:49:33.952Z,996.56
2022-09-03T09:50:33.190Z,996.49
2022-09-03T09:51:33.324Z,996.42
2022-09-03T09:52:33.452Z,996.44
2022-09-03T09:53:34.454Z,996.56
2022-09-03T09:54:33.823Z,996.54
2022-09-03T09:55:33.982Z,996.69
2022-09-03T09:56:34.130Z,996.70
2022-09-03T09:57:34.975Z,996.85
2022-09-03T09:58:34.466Z,996.92
2022-09-03T09:59:34.611Z,997.02
2022-09-03T10:00:34.964Z,997.17
2022-09-03T10:01:34.923Z,997.26
2022-09-03T10:02:35.119Z,997.32
2022-09-03T10:03:35.958Z,997.40
2022-09-03T10:04:35.502Z,997.58
2022-09-03T10:05:35.653Z,997.66
2022-09-03T10:06:36.459Z,997.69
2022-09-03T10:07:35.942Z,997.74
2022-09-03T10:08:36.069Z,997.82
2022-09-03T10:09:36.238Z,997.88
2022-09-03T10:10:36.387Z,997.87
2022-09-03T10:11:36.529Z,997.90
2022-09-03T10:12:36.658Z,998.07
2022-09-03T10:13:37.462Z,998.03
2022-09-03T10:14:36.965Z,998.07
2022-09-03T10:15:37.187Z,998.07
2022-09-03T10:16:37.267Z,998.04
2022-09-03T10:17:37.656Z,997.98
2022-09-03T10:18:37.698Z,997.91
2022-09-03T10:19:37.842Z,997.79
2022-09-03T10:20:38.007Z,997.78
2022-09-03T10:21:38.141Z,997.68
2022-09-03T10:22:38.278Z,997.75
2022-09-03T10:23:39.430Z,997.73
2022-09-03T10:24:38.600Z,997.80
2022-09-03T10:25:38.752Z,997.80
2022-09-03T10:26:38.932Z,997.82
2022-09-03T10:27:41.127Z,997.81
2022-09-03T10:28:39.342Z,997.71
2022-09-03T10:29:39.520Z,997.79
2022-09-03T10:30:39.737Z,997.76
2022-09-03T10:31:39.915Z,997.63
2022-09-03T10:32:42.778Z,997.58
2022-09-03T10:33:41.240Z,997.48
2022-09-03T10:34:40.408Z,997.52
2022-09-03T10:35:40.600Z,997.52
2022-09-03T10:36:40.770Z,997.56
2022-09-03T10:37:40.987Z,997.65
2022-09-03T10:38:41.479Z,997.68
2022-09-03T10:39:43.143Z,997.61
2022-09-03T10:40:42.473Z,997.63
2022-09-03T10:41:41.777Z,997.65
2022-09-03T10:42:41.962Z,997.74
2022-09-03T10:43:42.227Z,997.73
2022-09-03T10:44:42.975Z,997.66
2022-09-03T10:45:43.475Z,997.72
2022-09-03T10:46:42.661Z,997.74
2022-09-03T10:47:43.476Z,997.77
2022-09-03T10:48:43.034Z,997.86
2022-09-03T10:49:43.222Z,997.82
2022-09-03T10:50:43.977Z,997.81
2022-09-03T10:51:49.362Z,997.89
2022-09-03T10:52:46.474Z,997.94
2022-09-03T10:53:43.998Z,997.90
2022-09-03T10:54:44.975Z,997.95
2022-09-03T10:55:44.410Z,998.03
2022-09-03T10:56:44.594Z,997.90
2022-09-03T10:57:44.783Z,998.04
2022-09-03T10:58:44.974Z,998.04
2022-09-03T10:59:45.148Z,998.01
2022-09-03T11:00:45.307Z,998.04
2022-09-03T11:01:45.531Z,998.05
2022-09-03T11:02:45.635Z,998.07
2022-09-03T11:03:45.760Z,998.08
2022-09-03T11:04:45.945Z,998.09
2022-09-03T11:05:46.079Z,998.00
2022-09-03T11:06:46.221Z,998.11
2022-09-03T11:07:46.980Z,998.00
2022-09-03T11:08:46.504Z,998.01
2022-09-03T11:09:46.625Z,998.02
2022-09-03T11:10:46.995Z,998.08
2022-09-03T11:11:47.982Z,998.04
2022-09-03T11:12:47.985Z,998.10
2022-09-03T11:13:48.462Z,998.11
2022-09-03T11:14:48.486Z,998.15
2022-09-03T11:15:47.912Z,998.08
2022-09-03T11:16:48.987Z,998.09
2022-09-03T11:17:48.229Z,998.06
2022-09-03T11:18:48.412Z,998.16
2022-09-03T11:19:48.550Z,998.14
2022-09-03T11:20:48.705Z,998.13
2022-09-03T11:21:48.863Z,998.08
2022-09-03T11:22:49.002Z,998.05
2022-09-03T11:23:49.509Z,997.95
2022-09-03T11:24:50.383Z,997.94
2022-09-03T11:25:49.617Z,997.93
2022-09-03T11:26:49.804Z,998.04
2022-09-03T11:27:54.544Z,998.07
2022-09-03T11:28:52.100Z,998.04
2022-09-03T11:29:50.321Z,998.08
2022-09-03T11:30:51.030Z,998.09
2022-09-03T11:31:51.003Z,998.13
2022-09-03T11:32:52.959Z,998.09
2022-09-03T11:33:52.072Z,998.12
2022-09-03T11:34:51.318Z,998.10
2022-09-03T11:35:52.013Z,998.14
2022-09-03T11:36:51.608Z,998.07
2022-09-03T11:37:51.728Z,998.11
2022-09-03T11:38:51.877Z,998.11
2022-09-03T11:39:52.069Z,998.14
2022-09-03T11:40:53.083Z,998.10
2022-09-03T11:41:52.997Z,998.10
2022-09-03T11:42:52.474Z,998.08
2022-09-03T11:43:53.498Z,998.13
2022-09-03T11:44:53.011Z,998.17
2022-09-03T11:45:53.574Z,998.13
2022-09-03T11:46:53.510Z,998.05
2022-09-03T11:47:53.277Z,998.03
2022-09-03T11:48:53.418Z,997.97
2022-09-03T11:49:53.571Z,997.85
2022-09-03T11:50:54.526Z,997.76
2022-09-03T11:51:53.932Z,997.84
2022-09-03T11:52:55.094Z,997.87
2022-09-03T11:53:54.510Z,997.80
2022-09-03T11:54:54.395Z,997.80
2022-09-03T11:55:55.502Z,997.90
2022-09-03T11:56:54.772Z,997.87
2022-09-03T11:57:54.926Z,997.86
2022-09-03T11:58:55.079Z,997.90
2022-09-03T11:59:55.232Z,998.03
2022-09-03T12:00:55.388Z,998.03
2022-09-03T12:01:55.552Z,998.01
2022-09-03T12:02:58.919Z,998.04
2022-09-03T12:03:56.845Z,998.12
2022-09-03T12:04:56.057Z,998.11
2022-09-03T12:05:56.217Z,998.17
2022-09-03T12:06:56.380Z,998.16
2022-09-03T12:07:56.510Z,998.29
2022-09-03T12:08:56.648Z,998.23
2022-09-03T12:09:56.766Z,998.29
2022-09-03T12:10:56.917Z,998.34
2022-09-03T12:11:57.088Z,998.33
2022-09-03T12:12:57.239Z,998.48
2022-09-03T12:13:58.013Z,998.45
2022-09-03T12:14:57.504Z,998.44
2022-09-03T12:15:58.543Z,998.46
2022-09-03T12:16:57.839Z,998.53
2022-09-03T12:17:58.014Z,998.47
2022-09-03T12:18:58.521Z,998.48